Wetterdaten: November 2017
Datum Temp Feuchte Luftdruck Regen Wind Richtung Sonnenschein UV Solar Windben
01.11.2017 8,5 C 95 % 1018,9 hPa 8,8 l/m 0,4 km/h S-SW 0,08 h 0,6 UV-I 54 W/m 4,4 km/h
02.11.2017 9,3 C 90 % 1013,1 hPa 2,2 l/m 1,1 km/h W-SW 0,17 h 0,6 UV-I 47 W/m 8,9 km/h
03.11.2017 6,3 C 96 % 1015,2 hPa 0,0 l/m 0,0 km/h S-SO 0,17 h 0,6 UV-I 67 W/m 0,0 km/h
04.11.2017 9,1 C 93 % 1007,0 hPa 0,4 l/m 5,7 km/h S-SO 1,75 h 0,8 UV-I 114 W/m 9,7 km/h
05.11.2017 6,6 C 95 % 1009,7 hPa 14,6 l/m 0,2 km/h NW 0,00 h 0,5 UV-I 35 W/m 3,2 km/h
06.11.2017 4,4 C 96 % 1024,1 hPa 0,0 l/m 0,0 km/h W-SW 0,00 h 0,5 UV-I 51 W/m 0,0 km/h
07.11.2017 4,7 C 95 % 1020,9 hPa 0,2 l/m 0,0 km/h O-SO 1,50 h 0,7 UV-I 94 W/m 0,0 km/h
08.11.2017 5,9 C 95 % 1019,2 hPa 0,0 l/m 0,6 km/h NO 0,00 h 0,0 UV-I 21 W/m 3,6 km/h
09.11.2017 6,3 C 92 % 1021,1 hPa 0,4 l/m 1,7 km/h SW 0,00 h 0,5 UV-I 42 W/m 7,2 km/h
10.11.2017 5,8 C 94 % 1011,8 hPa 8,6 l/m 7,3 km/h S-SW 0,00 h 0,0 UV-I 19 W/m 21,3 km/h
11.11.2017 4,3 C 95 % 1007,4 hPa 2,6 l/m 4,2 km/h SW 0,10 h 0,6 UV-I 40 W/m 12,9 km/h
12.11.2017 2,6 C 96 % 1002,4 hPa 6,0 l/m 0,0 km/h N-NW 0,00 h 0,5 UV-I 40 W/m 0,0 km/h
13.11.2017 5,0 C 93 % 1017,0 hPa 1,2 l/m 0,7 km/h NW 3,08 h 0,7 UV-I 137 W/m 8,4 km/h
14.11.2017 5,4 C 91 % 1023,3 hPa 2,2 l/m 0,4 km/h S-SW 2,18 h 0,7 UV-I 108 W/m 4,0 km/h
15.11.2017 7,0 C 96 % 1025,1 hPa 2,8 l/m 0,0 km/h S 0,00 h 0,5 UV-I 57 W/m 0,0 km/h
16.11.2017 5,9 C 95 % 1022,8 hPa 1,8 l/m 2,4 km/h S-SO 0,00 h 0,6 UV-I 75 W/m 3,6 km/h
17.11.2017 3,4 C 92 % 1024,8 hPa 1,6 l/m 0,0 km/h S-SO 4,83 h 0,7 UV-I 169 W/m 0,0 km/h
18.11.2017 3,9 C 89 % 1015,5 hPa 4,6 l/m 6,9 km/h S-SW 0,00 h 0,5 UV-I 41 W/m 18,1 km/h
19.11.2017 3,7 C 95 % 1015,0 hPa 4,0 l/m 4,7 km/h W-SW 0,08 h 0,0 UV-I 33 W/m 20,9 km/h
20.11.2017 3,5 C 96 % 1013,6 hPa 17,4 l/m 2,3 km/h S-SO 0,00 h 0,0 UV-I 27 W/m 9,3 km/h
21.11.2017 9,0 C 98 % 1009,4 hPa 13,0 l/m 5,3 km/h SW 0,00 h 0,0 UV-I 23 W/m 23,7 km/h
Min-Datum 17.11.17 02.11.17 12.11.17 18 Tage 01.11.17 - - - - 01.11.17
Min-Zeit 22:55 06:35 14:40 - 07:10 - - - - 07:10
Minimum -0,6 C 75 % 998,5 hPa - 0,0 km/h - - - - 0,0 km/h
Max-Datum 04.11.17 01.11.17 06.11.17 20.11.17 10.11.17 - 17.11.17 04.11.17 04.11.17 10.11.17
Max-Zeit 23:30 09:55 21:50 20:00 16:20 - 15:40 12:20 12:20 16:20
Maximum 11,1 C 98 % 1026,7 hPa 17,4 l/m 25,9 km/h
S-SW
- 4,75 h 1,2 UV-I 445 W/m 51,5 km/h
S-SW
Durchschnitt 5,8 C 94 % 1016,1 hPa #92,4 l/m 2,1 km/h S-SW #13:57 h 0,6 UV-I 62 W/m 7,6 km/h

Durchschnitt Minimum Temp.3,7 C
Durchschnitt Maximum Temp.7,8 C